createdAt,value
2022-12-12T00:01:41.935Z,32.50
2022-12-12T00:04:44.714Z,35.20
2022-12-12T00:07:49.218Z,35.93
2022-12-12T00:10:51.801Z,37.43
2022-12-12T00:13:55.365Z,34.47
2022-12-12T00:16:58.035Z,33.40
2022-12-12T00:20:00.831Z,32.47
2022-12-12T00:23:04.777Z,33.40
2022-12-12T00:29:15.150Z,29.97
2022-12-12T00:32:17.815Z,31.80
2022-12-12T00:35:20.602Z,34.33
2022-12-12T00:38:25.265Z,30.27
2022-12-12T00:41:28.455Z,31.37
2022-12-12T00:44:31.209Z,33.67
2022-12-12T00:47:33.995Z,34.27
2022-12-12T00:50:36.849Z,30.53
2022-12-12T00:53:41.291Z,31.50
2022-12-12T00:56:44.131Z,27.10
2022-12-12T00:59:46.976Z,30.27
2022-12-12T01:02:51.774Z,27.03
2022-12-12T01:05:54.488Z,28.73
2022-12-12T01:08:59.106Z,26.73
2022-12-12T01:12:02.018Z,31.30
2022-12-12T01:15:06.625Z,26.50
2022-12-12T01:18:09.633Z,24.47
2022-12-12T01:21:16.811Z,26.20
2022-12-12T01:24:20.929Z,25.00
2022-12-12T01:27:24.197Z,25.63
2022-12-12T01:30:27.913Z,24.55
2022-12-12T01:33:31.121Z,25.63
2022-12-12T01:36:34.055Z,21.15
2022-12-12T01:39:38.932Z,20.95
2022-12-12T01:42:41.853Z,19.60
2022-12-12T01:46:37.468Z,28.40
2022-12-12T01:49:41.276Z,19.57
2022-12-12T01:52:48.774Z,20.05
2022-12-12T01:55:53.340Z,20.93
2022-12-12T01:58:57.031Z,21.13
2022-12-12T02:01:59.812Z,18.35
2022-12-12T02:05:06.075Z,20.47
2022-12-12T02:08:09.670Z,25.50
2022-12-12T02:11:13.856Z,22.33
2022-12-12T02:14:19.419Z,17.33
2022-12-12T02:17:45.310Z,21.27
2022-12-12T02:21:03.190Z,19.40
2022-12-12T02:24:38.138Z,16.33
2022-12-12T02:27:53.699Z,18.40
2022-12-12T02:31:13.925Z,21.43
2022-12-12T02:34:20.899Z,17.73
2022-12-12T02:37:32.513Z,19.87
2022-12-12T02:40:40.521Z,20.37
2022-12-12T02:43:45.471Z,17.23
2022-12-12T02:46:53.720Z,20.27
2022-12-12T02:49:58.973Z,23.08
2022-12-12T02:53:02.218Z,20.10
2022-12-12T02:56:07.436Z,19.48
2022-12-12T02:59:11.043Z,20.03
2022-12-12T03:02:33.482Z,19.95
2022-12-12T03:06:01.407Z,23.65
2022-12-12T03:09:10.590Z,23.80
2022-12-12T03:12:17.404Z,23.80
2022-12-12T03:15:24.386Z,25.03
2022-12-12T03:18:32.366Z,30.10
2022-12-12T03:21:40.539Z,33.13
2022-12-12T03:24:49.606Z,29.95
2022-12-12T03:27:55.572Z,32.55
2022-12-12T03:31:00.324Z,28.30
2022-12-12T03:34:08.257Z,31.50
2022-12-12T03:37:14.927Z,34.35
2022-12-12T03:40:21.748Z,30.63
2022-12-12T03:43:26.837Z,30.05
2022-12-12T03:46:32.651Z,32.70
2022-12-12T03:49:41.539Z,74.50
2022-12-12T03:52:47.528Z,38.53
2022-12-12T03:55:53.116Z,31.13
2022-12-12T03:58:59.173Z,33.90
2022-12-12T04:02:04.891Z,36.97
2022-12-12T04:05:16.086Z,32.45
2022-12-12T04:08:19.404Z,32.22
2022-12-12T04:11:40.411Z,36.40
2022-12-12T04:15:06.558Z,34.50
2022-12-12T04:18:15.937Z,32.97
2022-12-12T04:21:43.690Z,38.00
2022-12-12T04:24:49.670Z,42.28
2022-12-12T04:27:56.980Z,37.28
2022-12-12T04:31:03.524Z,38.80
2022-12-12T04:34:11.226Z,35.17
2022-12-12T04:37:18.332Z,43.05
2022-12-12T04:40:23.143Z,36.95
2022-12-12T04:43:31.608Z,36.67
2022-12-12T04:46:35.001Z,42.50
2022-12-12T04:49:39.658Z,35.92
2022-12-12T04:52:44.641Z,33.87
2022-12-12T04:55:50.914Z,34.85
2022-12-12T04:58:55.645Z,31.23
2022-12-12T05:02:06.043Z,36.80
2022-12-12T05:05:13.388Z,37.87
2022-12-12T05:08:22.328Z,35.30
2022-12-12T05:11:25.721Z,37.95
2022-12-12T05:14:28.779Z,34.95
2022-12-12T05:17:36.585Z,36.35
2022-12-12T05:20:39.707Z,33.87
2022-12-12T05:23:44.002Z,34.75
2022-12-12T05:26:46.666Z,33.03
2022-12-12T05:29:49.649Z,29.67
2022-12-12T05:32:53.626Z,38.15
2022-12-12T05:35:56.494Z,37.73
2022-12-12T05:39:01.342Z,33.43
2022-12-12T05:42:04.248Z,32.77
2022-12-12T05:45:08.245Z,33.05
2022-12-12T05:48:11.377Z,38.27
2022-12-12T05:51:14.330Z,33.60
2022-12-12T05:54:18.345Z,34.70
2022-12-12T05:57:21.683Z,31.83
2022-12-12T06:00:24.463Z,33.20
2022-12-12T06:03:27.584Z,32.67
2022-12-12T06:06:30.262Z,28.42
2022-12-12T06:09:34.468Z,31.60
2022-12-12T06:12:37.059Z,30.40
2022-12-12T06:15:41.144Z,30.47
2022-12-12T06:18:43.733Z,35.03
2022-12-12T06:21:46.569Z,34.17
2022-12-12T06:24:50.629Z,29.67
2022-12-12T06:27:53.237Z,31.23
2022-12-12T06:30:55.915Z,33.03
2022-12-12T06:33:58.843Z,31.83
2022-12-12T06:37:01.624Z,32.80
2022-12-12T06:40:06.651Z,31.43
2022-12-12T06:43:10.131Z,31.30
2022-12-12T06:46:16.665Z,32.42
2022-12-12T06:49:20.876Z,30.50
2022-12-12T06:52:23.969Z,33.30
2022-12-12T06:55:28.823Z,31.17
2022-12-12T06:58:33.372Z,27.13
2022-12-12T07:01:36.157Z,27.30
2022-12-12T07:04:38.988Z,30.70
2022-12-12T07:07:41.719Z,30.13
2022-12-12T07:10:46.322Z,29.60
2022-12-12T07:13:48.978Z,36.63
2022-12-12T07:16:51.604Z,34.97
2022-12-12T07:19:54.378Z,26.73
2022-12-12T07:22:57.340Z,27.30
2022-12-12T07:26:04.436Z,37.90
2022-12-12T07:29:07.190Z,33.53
2022-12-12T07:32:10.094Z,32.60
2022-12-12T07:35:12.871Z,26.88
2022-12-12T07:38:15.915Z,32.72
2022-12-12T07:41:21.339Z,28.52
2022-12-12T07:44:23.991Z,37.93
2022-12-12T07:47:26.576Z,30.30
2022-12-12T07:50:29.578Z,30.23
2022-12-12T07:53:32.477Z,35.17
2022-12-12T07:56:36.724Z,30.48
2022-12-12T07:59:39.780Z,34.33
2022-12-12T08:02:42.911Z,31.80
2022-12-12T08:05:46.235Z,29.13
2022-12-12T08:08:50.954Z,29.55
2022-12-12T08:11:58.385Z,28.60
2022-12-12T08:15:02.561Z,28.97
2022-12-12T08:18:05.757Z,33.33
2022-12-12T08:21:11.631Z,27.77
2022-12-12T08:24:16.268Z,31.57
2022-12-12T08:27:20.256Z,30.37
2022-12-12T08:30:23.035Z,29.20
2022-12-12T08:33:25.611Z,31.27
2022-12-12T08:36:30.270Z,31.50
2022-12-12T08:39:33.379Z,29.07
2022-12-12T08:42:37.601Z,29.23
2022-12-12T08:45:40.853Z,29.97
2022-12-12T08:48:43.752Z,28.50
2022-12-12T08:51:46.745Z,28.77
2022-12-12T08:54:49.482Z,29.98
2022-12-12T08:57:53.673Z,29.03
2022-12-12T09:00:57.873Z,30.07
2022-12-12T09:04:00.662Z,34.60
2022-12-12T09:07:08.837Z,32.10
2022-12-12T09:10:11.713Z,34.77
2022-12-12T09:13:15.627Z,37.83
2022-12-12T09:19:22.061Z,26.52
2022-12-12T09:22:24.854Z,33.73
2022-12-12T09:25:27.502Z,30.83
2022-12-12T09:28:31.417Z,30.40
2022-12-12T09:34:38.080Z,29.77
2022-12-12T09:37:41.296Z,28.23
2022-12-12T09:40:55.236Z,28.60
2022-12-12T09:44:01.705Z,24.70
2022-12-12T09:47:07.222Z,27.17
2022-12-12T09:50:16.357Z,33.77
2022-12-12T09:53:21.532Z,29.13
2022-12-12T09:56:28.936Z,37.27
2022-12-12T09:59:38.795Z,27.10
2022-12-12T10:02:49.615Z,36.77
2022-12-12T10:06:20.585Z,32.50
2022-12-12T10:09:36.531Z,22.63
2022-12-12T10:12:39.522Z,27.47
2022-12-12T10:15:46.197Z,26.15
2022-12-12T10:18:51.545Z,19.27
2022-12-12T10:21:55.889Z,26.73
2022-12-12T10:25:03.974Z,21.20
2022-12-12T10:28:11.073Z,22.80
2022-12-12T10:31:23.893Z,22.77
2022-12-12T10:34:35.870Z,23.67
2022-12-12T10:37:45.474Z,21.23
2022-12-12T10:40:54.771Z,24.03
2022-12-12T10:44:05.424Z,25.97
2022-12-12T10:47:11.789Z,21.53
2022-12-12T10:50:23.093Z,23.07
2022-12-12T10:53:26.040Z,19.87
2022-12-12T10:56:30.029Z,24.15
2022-12-12T10:59:33.124Z,23.77
2022-12-12T11:02:42.479Z,19.95
2022-12-12T11:05:45.996Z,26.60
2022-12-12T11:08:56.679Z,25.95
2022-12-12T11:12:01.003Z,25.70
2022-12-12T11:15:08.806Z,22.90
2022-12-12T11:18:17.184Z,20.70
2022-12-12T11:21:21.755Z,20.47
2022-12-12T11:24:28.813Z,26.87
2022-12-12T11:27:34.548Z,29.83
2022-12-12T11:30:39.980Z,26.00
2022-12-12T11:33:48.741Z,29.00
2022-12-12T11:36:51.850Z,23.37
2022-12-12T11:39:55.806Z,28.17
2022-12-12T11:43:15.581Z,23.20
2022-12-12T11:46:19.935Z,23.10
2022-12-12T11:49:24.202Z,21.57
2022-12-12T11:52:29.971Z,25.50
2022-12-12T11:55:38.681Z,23.67
2022-12-12T11:58:47.213Z,25.13
2022-12-12T12:01:57.438Z,22.80
2022-12-12T12:05:08.140Z,27.07
2022-12-12T12:08:19.316Z,25.43
2022-12-12T12:11:28.717Z,25.00
2022-12-12T12:14:45.722Z,25.53
2022-12-12T12:18:00.807Z,20.63
2022-12-12T12:21:29.357Z,24.30
2022-12-12T12:24:50.912Z,28.80
2022-12-12T12:28:01.724Z,28.53
2022-12-12T12:31:11.025Z,21.53
2022-12-12T12:34:20.606Z,28.47
2022-12-12T12:37:34.144Z,20.87
2022-12-12T12:40:49.470Z,21.20
2022-12-12T12:44:03.080Z,22.87
2022-12-12T12:47:13.514Z,29.67
2022-12-12T12:50:19.305Z,19.37
2022-12-12T12:53:30.007Z,22.60
2022-12-12T12:56:38.535Z,23.30
2022-12-12T12:59:47.030Z,22.80
2022-12-12T13:02:55.251Z,24.60
2022-12-12T13:06:00.098Z,21.47
2022-12-12T13:09:31.911Z,25.03
2022-12-12T13:12:37.341Z,22.00
2022-12-12T13:15:42.820Z,21.60
2022-12-12T13:18:48.329Z,20.70
2022-12-12T13:21:56.576Z,22.17
2022-12-12T13:25:05.173Z,21.63
2022-12-12T13:28:13.613Z,25.27
2022-12-12T13:31:29.029Z,32.97
2022-12-12T13:34:32.355Z,20.40
2022-12-12T13:37:36.492Z,31.33
2022-12-12T13:40:44.764Z,31.53
2022-12-12T13:43:48.780Z,22.70
2022-12-12T13:46:51.483Z,26.47
2022-12-12T13:49:55.277Z,26.63
2022-12-12T13:53:20.766Z,52.40
2022-12-12T13:56:35.125Z,25.67
2022-12-12T14:03:02.029Z,31.00
2022-12-12T14:06:11.221Z,18.53
2022-12-12T14:09:21.365Z,28.97
2022-12-12T14:12:31.420Z,25.30
2022-12-12T14:15:41.182Z,28.80
2022-12-12T14:18:59.824Z,27.13
2022-12-12T14:22:02.405Z,30.50
2022-12-12T14:25:09.167Z,28.63
2022-12-12T14:28:19.749Z,29.60
2022-12-12T14:31:23.547Z,26.83
2022-12-12T14:34:28.503Z,39.10
2022-12-12T14:37:40.379Z,35.80
2022-12-12T14:40:46.323Z,34.43
2022-12-12T14:44:38.017Z,32.63
2022-12-12T14:47:18.509Z,25.47
2022-12-12T14:50:21.050Z,29.13
2022-12-12T14:53:25.487Z,28.97
2022-12-12T14:56:29.594Z,22.03
2022-12-12T14:59:35.510Z,31.97
2022-12-12T15:02:40.072Z,31.27
2022-12-12T15:05:42.883Z,29.93
2022-12-12T15:08:45.724Z,30.53
2022-12-12T15:11:49.294Z,36.20
2022-12-12T15:14:58.194Z,29.75
2022-12-12T15:18:02.211Z,30.57
2022-12-12T15:21:05.698Z,28.83
2022-12-12T15:24:17.456Z,26.65
2022-12-12T15:27:25.216Z,31.73
2022-12-12T15:30:33.932Z,29.90
2022-12-12T15:33:39.286Z,27.07
2022-12-12T15:36:41.974Z,31.43
2022-12-12T15:39:44.813Z,30.93
2022-12-12T15:42:50.212Z,25.73
2022-12-12T15:45:56.036Z,29.23
2022-12-12T15:48:58.870Z,29.43
2022-12-12T15:52:10.166Z,25.87
2022-12-12T15:55:20.552Z,28.27
2022-12-12T15:58:29.466Z,28.37
2022-12-12T16:01:33.833Z,25.37
2022-12-12T16:04:36.995Z,23.30
2022-12-12T16:07:40.741Z,25.73
2022-12-12T16:10:52.245Z,26.87
2022-12-12T16:13:55.205Z,25.23
2022-12-12T16:17:02.899Z,20.95
2022-12-12T16:20:07.493Z,24.80
2022-12-12T16:23:17.515Z,27.67
2022-12-12T16:26:20.402Z,23.03
2022-12-12T16:29:23.237Z,23.90
2022-12-12T16:32:27.791Z,22.53
2022-12-12T16:35:30.683Z,25.27
2022-12-12T16:38:33.661Z,21.13
2022-12-12T16:41:36.787Z,27.13
2022-12-12T16:44:39.466Z,20.50
2022-12-12T16:47:43.537Z,25.30
2022-12-12T16:50:46.858Z,20.80
2022-12-12T16:53:49.451Z,23.52
2022-12-12T16:56:54.025Z,24.40
2022-12-12T16:59:56.826Z,21.10
2022-12-12T17:03:00.871Z,20.90
2022-12-12T17:06:04.122Z,19.73
2022-12-12T17:09:06.725Z,19.48
2022-12-12T17:12:11.623Z,19.50
2022-12-12T17:15:17.397Z,30.17
2022-12-12T17:18:21.801Z,21.37
2022-12-12T17:21:24.380Z,21.47
2022-12-12T17:24:27.319Z,21.87
2022-12-12T17:27:30.108Z,20.55
2022-12-12T17:30:32.878Z,25.20
2022-12-12T17:33:49.615Z,21.50
2022-12-12T17:36:53.221Z,27.80
2022-12-12T17:39:55.835Z,21.88
2022-12-12T17:42:58.967Z,21.20
2022-12-12T17:46:04.421Z,18.42
2022-12-12T17:49:08.710Z,23.95
2022-12-12T17:52:11.319Z,22.33
2022-12-12T17:55:54.735Z,22.35
2022-12-12T17:58:36.673Z,23.27
2022-12-12T18:01:39.253Z,21.83
2022-12-12T18:04:43.520Z,22.83
2022-12-12T18:07:46.593Z,24.90
2022-12-12T18:10:49.463Z,24.27
2022-12-12T18:13:52.969Z,28.88
2022-12-12T18:16:55.911Z,28.85
2022-12-12T18:20:00.039Z,23.98
2022-12-12T18:23:02.977Z,20.00
2022-12-12T18:26:06.680Z,25.50
2022-12-12T18:29:09.980Z,32.97
2022-12-12T18:32:12.821Z,22.98
2022-12-12T18:35:16.992Z,23.02
2022-12-12T18:38:20.371Z,30.27
2022-12-12T18:41:23.239Z,39.08
2022-12-12T18:44:26.067Z,36.80
2022-12-12T18:47:28.861Z,44.17
2022-12-12T18:50:33.983Z,44.43
2022-12-12T18:53:37.795Z,47.55
2022-12-12T18:59:43.305Z,34.20
2022-12-12T19:02:46.066Z,26.85
2022-12-12T19:05:50.220Z,24.95
2022-12-12T19:08:54.328Z,21.55
2022-12-12T19:12:02.507Z,29.52
2022-12-12T19:15:21.724Z,34.47
2022-12-12T19:18:24.842Z,26.05
2022-12-12T19:21:28.996Z,30.42
2022-12-12T19:24:31.655Z,27.58
2022-12-12T19:27:34.351Z,31.25
2022-12-12T19:30:40.835Z,31.13
2022-12-12T19:33:43.590Z,26.25
2022-12-12T19:36:47.636Z,29.38
2022-12-12T19:39:52.265Z,22.73
2022-12-12T19:42:54.977Z,28.17
2022-12-12T19:46:04.121Z,27.15
2022-12-12T19:49:08.545Z,28.33
2022-12-12T19:52:14.487Z,29.08
2022-12-12T19:55:17.700Z,28.80
2022-12-12T19:58:20.609Z,29.70
2022-12-12T20:01:25.514Z,31.58
2022-12-12T20:04:30.251Z,30.58
2022-12-12T20:07:34.445Z,28.42
2022-12-12T20:10:38.884Z,26.85
2022-12-12T20:13:41.919Z,21.25
2022-12-12T20:16:45.415Z,27.65
2022-12-12T20:19:49.386Z,24.85
2022-12-12T20:22:53.605Z,24.73
2022-12-12T20:25:56.229Z,28.00
2022-12-12T20:29:00.617Z,26.02
2022-12-12T20:32:03.357Z,25.45
2022-12-12T20:35:06.802Z,28.80
2022-12-12T20:38:11.185Z,28.88
2022-12-12T20:41:18.179Z,30.20
2022-12-12T20:44:20.944Z,31.20
2022-12-12T20:47:24.380Z,38.05
2022-12-12T20:50:27.500Z,39.95
2022-12-12T20:53:36.252Z,33.70
2022-12-12T20:56:42.952Z,53.83
2022-12-12T20:59:49.379Z,44.60
2022-12-12T21:02:52.069Z,36.38
2022-12-12T21:05:55.104Z,31.50
2022-12-12T21:09:00.958Z,36.30
2022-12-12T21:12:03.701Z,33.13
2022-12-12T21:15:06.964Z,30.13
2022-12-12T21:18:09.933Z,45.78
2022-12-12T21:21:13.540Z,33.30
2022-12-12T21:24:19.416Z,28.80
2022-12-12T21:27:22.185Z,28.90
2022-12-12T21:30:25.025Z,30.50
2022-12-12T21:33:28.413Z,28.42
2022-12-12T21:36:31.381Z,30.15
2022-12-12T21:39:36.659Z,31.90
2022-12-12T21:42:39.526Z,30.48
2022-12-12T21:45:42.193Z,29.92
2022-12-12T21:48:44.942Z,27.98
2022-12-12T21:51:47.716Z,30.27
2022-12-12T21:54:51.785Z,28.48
2022-12-12T21:57:54.452Z,32.35
2022-12-12T22:00:57.265Z,26.30
2022-12-12T22:04:01.033Z,27.27
2022-12-12T22:10:10.823Z,26.58
2022-12-12T22:13:14.720Z,28.05
2022-12-12T22:16:19.400Z,27.08
2022-12-12T22:19:22.050Z,28.73
2022-12-12T22:22:24.752Z,33.88
2022-12-12T22:25:29.108Z,25.70
2022-12-12T22:28:32.159Z,28.35
2022-12-12T22:31:37.462Z,29.77
2022-12-12T22:34:40.729Z,28.25
2022-12-12T22:37:43.402Z,28.25
2022-12-12T22:40:55.280Z,26.70
2022-12-12T22:43:59.838Z,25.23
2022-12-12T22:47:02.586Z,25.80
2022-12-12T22:50:05.798Z,27.40
2022-12-12T22:53:08.741Z,29.77
2022-12-12T22:56:13.469Z,23.20
2022-12-12T22:59:16.725Z,24.77
2022-12-12T23:02:24.770Z,26.13
2022-12-12T23:05:28.036Z,24.42
2022-12-12T23:08:31.039Z,27.80
2022-12-12T23:11:36.607Z,32.08
2022-12-12T23:14:39.404Z,30.45
2022-12-12T23:17:42.073Z,28.98
2022-12-12T23:20:47.011Z,29.50
2022-12-12T23:23:50.390Z,31.50
2022-12-12T23:26:54.479Z,23.45
2022-12-12T23:29:57.134Z,27.25
2022-12-12T23:32:59.955Z,30.17
2022-12-12T23:36:02.876Z,26.95
2022-12-12T23:39:08.707Z,25.02
2022-12-12T23:42:12.965Z,26.45
2022-12-12T23:45:16.662Z,25.45
2022-12-12T23:48:20.066Z,30.40
2022-12-12T23:51:23.410Z,33.95
2022-12-12T23:54:28.404Z,30.13
2022-12-12T23:57:32.491Z,26.42
